NSZ2024 ENBR-EYPA
Flight info
| Callsign | NSZ2024 |
|---|---|
| Flight time | 1h 33m |
| Altitude | 39000 |
| Route | TINIG DCT BOMGU DCT NEFYN DCT VEDEN DCT TIRIN |
| Aircraft | B38M/M-SDE2E3GHIJ1LRWXY/LB2 |
Departure
| Time | 2026-05-08 01:37 |
|---|---|
| Airport | Bergen Airport, Flesland (ENBR) |
Arrival
| Time | 2026-05-08 03:10 |
|---|---|
| Airport | Palanga International Airport (EYPA) |
| Time | Latitude | Longitude | Altitude | Speed | Heading |
|---|---|---|---|---|---|
| 2026-05-08 01:17 | 60.28740 | 5.22902 | 175 ft | 0 kts | 80° |
| 2026-05-08 01:26 | 60.28739 | 5.22886 | 175 ft | 2 kts | 80° |
| 2026-05-08 01:26 | 60.28736 | 5.22856 | 176 ft | 1 kts | 76° |
| 2026-05-08 01:26 | 60.28732 | 5.22831 | 177 ft | 1 kts | 73° |
| 2026-05-08 01:26 | 60.28728 | 5.22808 | 177 ft | 2 kts | 69° |
| 2026-05-08 01:27 | 60.28723 | 5.22785 | 176 ft | 2 kts | 61° |
| 2026-05-08 01:27 | 60.28717 | 5.22763 | 175 ft | 2 kts | 47° |
| 2026-05-08 01:27 | 60.28705 | 5.22745 | 174 ft | 2 kts | 18° |
| 2026-05-08 01:27 | 60.28690 | 5.22741 | 174 ft | 1 kts | 354° |
| 2026-05-08 01:28 | 60.28687 | 5.22742 | 174 ft | 0 kts | 351° |
| 2026-05-08 01:29 | 60.28690 | 5.22741 | 174 ft | 1 kts | 351° |
| 2026-05-08 01:30 | 60.28707 | 5.22737 | 175 ft | 3 kts | 352° |
| 2026-05-08 01:30 | 60.28710 | 5.22736 | 173 ft | 1 kts | 353° |
| 2026-05-08 01:30 | 60.28715 | 5.22728 | 173 ft | 5 kts | 318° |
| 2026-05-08 01:30 | 60.28712 | 5.22563 | 170 ft | 15 kts | 258° |
| 2026-05-08 01:31 | 60.28784 | 5.22444 | 168 ft | 16 kts | 355° |
| 2026-05-08 01:31 | 60.28792 | 5.22443 | 169 ft | 16 kts | 354° |
| 2026-05-08 01:31 | 60.28880 | 5.22416 | 169 ft | 17 kts | 351° |
| 2026-05-08 01:32 | 60.29012 | 5.22371 | 168 ft | 21 kts | 351° |
| 2026-05-08 01:32 | 60.29050 | 5.22359 | 169 ft | 21 kts | 351° |
| 2026-05-08 01:33 | 60.29112 | 5.22338 | 170 ft | 22 kts | 351° |
| 2026-05-08 01:33 | 60.29267 | 5.22286 | 167 ft | 20 kts | 350° |
| 2026-05-08 01:33 | 60.29422 | 5.22233 | 162 ft | 25 kts | 351° |
| 2026-05-08 01:33 | 60.29587 | 5.22179 | 153 ft | 18 kts | 351° |
| 2026-05-08 01:34 | 60.29705 | 5.22136 | 150 ft | 15 kts | 338° |
| 2026-05-08 01:34 | 60.29724 | 5.21986 | 150 ft | 8 kts | 261° |
| 2026-05-08 01:34 | 60.29714 | 5.21854 | 151 ft | 11 kts | 261° |
| 2026-05-08 01:34 | 60.29692 | 5.21718 | 152 ft | 10 kts | 209° |
| 2026-05-08 01:35 | 60.29634 | 5.21720 | 151 ft | 1 kts | 170° |
| 2026-05-08 01:36 | 60.29619 | 5.21724 | 151 ft | 8 kts | 170° |
| 2026-05-08 01:36 | 60.29347 | 5.21815 | 157 ft | 71 kts | 171° |
| 2026-05-08 01:36 | 60.28667 | 5.22044 | 165 ft | 125 kts | 171° |
| 2026-05-08 01:37 | 60.27682 | 5.22355 | 317 ft | 150 kts | 171° |
| 2026-05-08 01:37 | 60.26621 | 5.22715 | 642 ft | 168 kts | 171° |
| 2026-05-08 01:37 | 60.25422 | 5.23089 | 1196 ft | 169 kts | 171° |
| 2026-05-08 01:37 | 60.24289 | 5.23451 | 1940 ft | 170 kts | 171° |
| 2026-05-08 01:38 | 60.23044 | 5.23858 | 2295 ft | 192 kts | 171° |
| 2026-05-08 01:38 | 60.21649 | 5.24322 | 2599 ft | 215 kts | 171° |
| 2026-05-08 01:38 | 60.20147 | 5.24826 | 3411 ft | 214 kts | 171° |
| 2026-05-08 01:38 | 60.18638 | 5.25336 | 4068 ft | 229 kts | 171° |
| 2026-05-08 01:39 | 60.17026 | 5.25882 | 4739 ft | 237 kts | 171° |
| 2026-05-08 01:39 | 60.15406 | 5.26431 | 5634 ft | 237 kts | 171° |
| 2026-05-08 01:39 | 60.13761 | 5.26988 | 6426 ft | 242 kts | 171° |
| 2026-05-08 01:39 | 60.12109 | 5.27741 | 7172 ft | 248 kts | 159° |
| 2026-05-08 01:40 | 60.10743 | 5.29904 | 7891 ft | 260 kts | 131° |
| 2026-05-08 01:40 | 60.09911 | 5.33221 | 8531 ft | 276 kts | 109° |
| 2026-05-08 01:40 | 60.09594 | 5.37089 | 9223 ft | 285 kts | 104° |
| 2026-05-08 01:40 | 60.09262 | 5.41047 | 9918 ft | 290 kts | 104° |
| 2026-05-08 01:41 | 60.08922 | 5.45087 | 10480 ft | 301 kts | 104° |
| 2026-05-08 01:41 | 60.08564 | 5.49334 | 10818 ft | 316 kts | 104° |
| 2026-05-08 01:41 | 60.08193 | 5.53730 | 11312 ft | 326 kts | 104° |
| 2026-05-08 01:41 | 60.07813 | 5.58206 | 12072 ft | 328 kts | 104° |
| 2026-05-08 01:42 | 60.07427 | 5.62745 | 12796 ft | 333 kts | 104° |
| 2026-05-08 01:42 | 60.07035 | 5.67336 | 13581 ft | 337 kts | 104° |
| 2026-05-08 01:42 | 60.06635 | 5.71996 | 14317 ft | 342 kts | 104° |
| 2026-05-08 01:42 | 60.06229 | 5.76707 | 15057 ft | 346 kts | 104° |
| 2026-05-08 01:43 | 60.05815 | 5.81487 | 15772 ft | 351 kts | 104° |
| 2026-05-08 01:43 | 60.05393 | 5.86344 | 16504 ft | 356 kts | 104° |
| 2026-05-08 01:43 | 60.04964 | 5.91260 | 17212 ft | 361 kts | 104° |
| 2026-05-08 01:43 | 60.04527 | 5.96242 | 17907 ft | 366 kts | 104° |
| 2026-05-08 01:44 | 60.04081 | 6.01298 | 18564 ft | 371 kts | 104° |
| 2026-05-08 01:44 | 60.03630 | 6.06390 | 19179 ft | 375 kts | 104° |
| 2026-05-08 01:44 | 60.03171 | 6.11544 | 19776 ft | 378 kts | 104° |
| 2026-05-08 01:44 | 60.02711 | 6.16698 | 20414 ft | 379 kts | 104° |
| 2026-05-08 01:45 | 60.02247 | 6.21865 | 21053 ft | 382 kts | 104° |
| 2026-05-08 01:45 | 60.01774 | 6.27110 | 21627 ft | 385 kts | 104° |
| 2026-05-08 01:45 | 60.01294 | 6.32396 | 22233 ft | 388 kts | 105° |
| 2026-05-08 01:45 | 60.00491 | 6.37491 | 22811 ft | 383 kts | 120° |
| 2026-05-08 01:46 | 59.99366 | 6.42343 | 23369 ft | 387 kts | 118° |
| 2026-05-08 01:46 | 59.98251 | 6.47258 | 23919 ft | 390 kts | 119° |
| 2026-05-08 01:46 | 59.97124 | 6.52181 | 24410 ft | 393 kts | 119° |
| 2026-05-08 01:46 | 59.95990 | 6.57104 | 24895 ft | 396 kts | 119° |
| 2026-05-08 01:47 | 59.94860 | 6.62005 | 25209 ft | 393 kts | 119° |
| 2026-05-08 01:47 | 59.93717 | 6.66943 | 25114 ft | 380 kts | 119° |
| 2026-05-08 01:47 | 59.92624 | 6.71651 | 25080 ft | 383 kts | 119° |
| 2026-05-08 01:48 | 59.90733 | 6.79775 | 25809 ft | 388 kts | 119° |
| 2026-05-08 01:48 | 59.89587 | 6.84686 | 26294 ft | 392 kts | 119° |
| 2026-05-08 01:48 | 59.88055 | 6.91232 | 26964 ft | 396 kts | 120° |
| 2026-05-08 01:48 | 59.86892 | 6.96189 | 27448 ft | 399 kts | 120° |
| 2026-05-08 01:49 | 59.85709 | 7.01216 | 27930 ft | 403 kts | 120° |
| 2026-05-08 01:49 | 59.84517 | 7.06275 | 28376 ft | 406 kts | 120° |
| 2026-05-08 01:49 | 59.83701 | 7.09726 | 28670 ft | 408 kts | 120° |
| 2026-05-08 01:49 | 59.82092 | 7.16522 | 29304 ft | 412 kts | 120° |
| 2026-05-08 01:50 | 59.81265 | 7.20006 | 29600 ft | 414 kts | 120° |
| 2026-05-08 01:50 | 59.80031 | 7.25198 | 30059 ft | 416 kts | 120° |
| 2026-05-08 01:50 | 59.78804 | 7.30343 | 30418 ft | 420 kts | 120° |
| 2026-05-08 01:50 | 59.77548 | 7.35599 | 30809 ft | 422 kts | 120° |
| 2026-05-08 01:51 | 59.76289 | 7.40852 | 31206 ft | 424 kts | 120° |
| 2026-05-08 01:51 | 59.75000 | 7.46222 | 31593 ft | 426 kts | 120° |
| 2026-05-08 01:51 | 59.73737 | 7.51467 | 31956 ft | 428 kts | 120° |
| 2026-05-08 01:51 | 59.72451 | 7.56799 | 32299 ft | 431 kts | 120° |
| 2026-05-08 01:52 | 59.71151 | 7.62173 | 32659 ft | 433 kts | 120° |
| 2026-05-08 01:52 | 59.69846 | 7.67553 | 33020 ft | 435 kts | 120° |
| 2026-05-08 01:52 | 59.68533 | 7.72956 | 33362 ft | 437 kts | 121° |
| 2026-05-08 01:52 | 59.67210 | 7.78385 | 33704 ft | 439 kts | 121° |
| 2026-05-08 01:53 | 59.65878 | 7.83836 | 34050 ft | 441 kts | 121° |
| 2026-05-08 01:53 | 59.64548 | 7.89271 | 34302 ft | 443 kts | 120° |
| 2026-05-08 01:53 | 59.63203 | 7.94749 | 34683 ft | 442 kts | 120° |
| 2026-05-08 01:53 | 59.61856 | 8.00219 | 34967 ft | 444 kts | 120° |
| 2026-05-08 01:54 | 59.60501 | 8.05710 | 35254 ft | 446 kts | 120° |
| 2026-05-08 01:54 | 59.59138 | 8.11219 | 35560 ft | 447 kts | 120° |
| 2026-05-08 01:54 | 59.57769 | 8.16740 | 35852 ft | 449 kts | 120° |
| 2026-05-08 01:54 | 59.56392 | 8.22277 | 36150 ft | 450 kts | 120° |
| 2026-05-08 01:55 | 59.55013 | 8.27812 | 36434 ft | 451 kts | 120° |
| 2026-05-08 01:55 | 59.53630 | 8.33348 | 36717 ft | 452 kts | 120° |
| 2026-05-08 01:55 | 59.52237 | 8.38906 | 37001 ft | 453 kts | 120° |
| 2026-05-08 01:55 | 59.50837 | 8.44481 | 37274 ft | 454 kts | 120° |
| 2026-05-08 01:56 | 59.49435 | 8.50051 | 37534 ft | 456 kts | 120° |
| 2026-05-08 01:56 | 59.48022 | 8.55648 | 37791 ft | 457 kts | 120° |
| 2026-05-08 01:56 | 59.46606 | 8.61245 | 38076 ft | 457 kts | 120° |
| 2026-05-08 01:56 | 59.45195 | 8.66807 | 38349 ft | 457 kts | 120° |
| 2026-05-08 01:57 | 59.43772 | 8.72401 | 38610 ft | 458 kts | 120° |
| 2026-05-08 01:57 | 59.42356 | 8.77955 | 38879 ft | 458 kts | 120° |
| 2026-05-08 01:57 | 59.40935 | 8.83513 | 39073 ft | 458 kts | 120° |
| 2026-05-08 01:57 | 59.39527 | 8.89010 | 39195 ft | 459 kts | 120° |
| 2026-05-08 01:58 | 59.36647 | 9.00207 | 39195 ft | 458 kts | 120° |
| 2026-05-08 01:58 | 59.33767 | 9.11349 | 39202 ft | 459 kts | 120° |
| 2026-05-08 01:59 | 59.30898 | 9.22391 | 39209 ft | 459 kts | 120° |
| 2026-05-08 01:59 | 59.28011 | 9.33452 | 39211 ft | 459 kts | 120° |
| 2026-05-08 02:00 | 59.25099 | 9.44552 | 39208 ft | 458 kts | 120° |
| 2026-05-08 02:00 | 59.22192 | 9.55576 | 39207 ft | 456 kts | 120° |
| 2026-05-08 02:01 | 59.19284 | 9.66552 | 39198 ft | 456 kts | 120° |
| 2026-05-08 02:01 | 59.16364 | 9.77519 | 39207 ft | 456 kts | 120° |
| 2026-05-08 02:02 | 59.13434 | 9.88469 | 39209 ft | 456 kts | 120° |
| 2026-05-08 02:02 | 59.10497 | 9.99393 | 39215 ft | 456 kts | 120° |
| 2026-05-08 02:03 | 59.07557 | 10.10277 | 39211 ft | 456 kts | 120° |
| 2026-05-08 02:03 | 59.04598 | 10.21177 | 39208 ft | 456 kts | 120° |
| 2026-05-08 02:04 | 59.01630 | 10.32062 | 39209 ft | 457 kts | 120° |
| 2026-05-08 02:04 | 58.98651 | 10.42948 | 39208 ft | 457 kts | 120° |
| 2026-05-08 02:05 | 58.95668 | 10.53796 | 39212 ft | 457 kts | 121° |
| 2026-05-08 02:05 | 58.92670 | 10.64656 | 39210 ft | 457 kts | 121° |
| 2026-05-08 02:06 | 58.89779 | 10.75606 | 39215 ft | 458 kts | 118° |
| 2026-05-08 02:06 | 58.86994 | 10.86679 | 39200 ft | 458 kts | 118° |
| 2026-05-08 02:07 | 58.84194 | 10.97718 | 39213 ft | 458 kts | 118° |
| 2026-05-08 02:07 | 58.81384 | 11.08738 | 39215 ft | 457 kts | 118° |
| 2026-05-08 02:08 | 58.78582 | 11.19669 | 39220 ft | 457 kts | 118° |
| 2026-05-08 02:08 | 58.75756 | 11.30641 | 39222 ft | 457 kts | 118° |
| 2026-05-08 02:09 | 58.72929 | 11.41566 | 39218 ft | 457 kts | 118° |
| 2026-05-08 02:09 | 58.70100 | 11.52443 | 39221 ft | 458 kts | 118° |
| 2026-05-08 02:10 | 58.67241 | 11.63381 | 39226 ft | 458 kts | 119° |
| 2026-05-08 02:10 | 58.64376 | 11.74291 | 39225 ft | 458 kts | 119° |
| 2026-05-08 02:11 | 58.61507 | 11.85165 | 39229 ft | 458 kts | 119° |
| 2026-05-08 02:11 | 58.58621 | 11.96048 | 39227 ft | 458 kts | 119° |
| 2026-05-08 02:12 | 58.55729 | 12.06899 | 39224 ft | 457 kts | 119° |
| 2026-05-08 02:12 | 58.52848 | 12.17662 | 39221 ft | 457 kts | 119° |
| 2026-05-08 02:13 | 58.49942 | 12.28464 | 39214 ft | 458 kts | 119° |
| 2026-05-08 02:13 | 58.47019 | 12.39275 | 39214 ft | 458 kts | 119° |
| 2026-05-08 02:14 | 58.44090 | 12.50060 | 39212 ft | 457 kts | 120° |
| 2026-05-08 02:14 | 58.41154 | 12.60821 | 39208 ft | 457 kts | 119° |
| 2026-05-08 02:15 | 58.38223 | 12.71508 | 39206 ft | 456 kts | 119° |
| 2026-05-08 02:15 | 58.35276 | 12.82209 | 39226 ft | 456 kts | 120° |
| 2026-05-08 02:16 | 58.32318 | 12.92897 | 39235 ft | 456 kts | 120° |
| 2026-05-08 02:16 | 58.29362 | 13.03527 | 39229 ft | 456 kts | 120° |
| 2026-05-08 02:17 | 58.26387 | 13.14173 | 39230 ft | 457 kts | 120° |
| 2026-05-08 02:17 | 58.23395 | 13.24836 | 39228 ft | 458 kts | 120° |
| 2026-05-08 02:18 | 58.20394 | 13.35479 | 39230 ft | 458 kts | 120° |
| 2026-05-08 02:18 | 58.17398 | 13.46055 | 39232 ft | 458 kts | 120° |
| 2026-05-08 02:19 | 58.14378 | 13.56666 | 39235 ft | 457 kts | 120° |
| 2026-05-08 02:19 | 58.11350 | 13.67256 | 39225 ft | 457 kts | 120° |
| 2026-05-08 02:20 | 58.08314 | 13.77827 | 39232 ft | 458 kts | 120° |
| 2026-05-08 02:20 | 58.05275 | 13.88358 | 39236 ft | 457 kts | 120° |
| 2026-05-08 02:21 | 58.02226 | 13.98880 | 39236 ft | 457 kts | 120° |
| 2026-05-08 02:21 | 57.99165 | 14.09393 | 39226 ft | 457 kts | 121° |
| 2026-05-08 02:22 | 57.96114 | 14.19822 | 39212 ft | 457 kts | 121° |
| 2026-05-08 02:22 | 57.93043 | 14.30275 | 39225 ft | 457 kts | 121° |
| 2026-05-08 02:23 | 57.89958 | 14.40727 | 39229 ft | 457 kts | 121° |
| 2026-05-08 02:23 | 57.86866 | 14.51157 | 39236 ft | 457 kts | 121° |
| 2026-05-08 02:24 | 57.83764 | 14.61575 | 39241 ft | 457 kts | 121° |
| 2026-05-08 02:24 | 57.80660 | 14.71950 | 39250 ft | 457 kts | 121° |
| 2026-05-08 02:25 | 57.77542 | 14.82328 | 39258 ft | 457 kts | 121° |
| 2026-05-08 02:25 | 57.74409 | 14.92707 | 39256 ft | 457 kts | 121° |
| 2026-05-08 02:26 | 57.71276 | 15.03050 | 39259 ft | 457 kts | 121° |
| 2026-05-08 02:26 | 57.68139 | 15.13367 | 39256 ft | 457 kts | 121° |
| 2026-05-08 02:27 | 57.64988 | 15.23685 | 39260 ft | 457 kts | 121° |
| 2026-05-08 02:27 | 57.63408 | 15.28842 | 39252 ft | 457 kts | 121° |
| 2026-05-08 02:28 | 57.63318 | 15.29137 | 39252 ft | 457 kts | 121° |
| 2026-05-08 02:29 | 57.60211 | 15.39248 | 39263 ft | 458 kts | 121° |
| 2026-05-08 02:29 | 57.57150 | 15.49640 | 39266 ft | 458 kts | 119° |
| 2026-05-08 02:30 | 57.54416 | 15.59198 | 39266 ft | 458 kts | 120° |
| 2026-05-08 02:30 | 57.51435 | 15.69557 | 39268 ft | 458 kts | 120° |
| 2026-05-08 02:31 | 57.48418 | 15.79996 | 39255 ft | 458 kts | 120° |
| 2026-05-08 02:31 | 57.45400 | 15.90389 | 39265 ft | 456 kts | 120° |
| 2026-05-08 02:32 | 57.42405 | 16.00656 | 39264 ft | 456 kts | 120° |
| 2026-05-08 02:32 | 57.39377 | 16.10994 | 39266 ft | 456 kts | 120° |
| 2026-05-08 02:33 | 57.36341 | 16.21310 | 39265 ft | 456 kts | 120° |
| 2026-05-08 02:33 | 57.33292 | 16.31626 | 39258 ft | 456 kts | 120° |
| 2026-05-08 02:34 | 57.30244 | 16.41891 | 39260 ft | 457 kts | 120° |
| 2026-05-08 02:34 | 57.27192 | 16.52129 | 39260 ft | 457 kts | 120° |
| 2026-05-08 02:35 | 57.24120 | 16.62386 | 39257 ft | 456 kts | 121° |
| 2026-05-08 02:35 | 57.21036 | 16.72637 | 39257 ft | 456 kts | 121° |
| 2026-05-08 02:36 | 57.17953 | 16.82841 | 39251 ft | 457 kts | 121° |
| 2026-05-08 02:36 | 57.15380 | 16.91324 | 39250 ft | 456 kts | 121° |
| 2026-05-08 02:37 | 57.12277 | 17.01514 | 39253 ft | 456 kts | 121° |
| 2026-05-08 02:37 | 57.09167 | 17.11681 | 39254 ft | 456 kts | 121° |
| 2026-05-08 02:38 | 57.06055 | 17.21813 | 39250 ft | 456 kts | 121° |
| 2026-05-08 02:38 | 57.02927 | 17.31949 | 39255 ft | 456 kts | 121° |
| 2026-05-08 02:39 | 56.99793 | 17.42065 | 39259 ft | 456 kts | 121° |
| 2026-05-08 02:39 | 56.96665 | 17.52117 | 39243 ft | 456 kts | 121° |
| 2026-05-08 02:40 | 56.93530 | 17.62149 | 39250 ft | 454 kts | 122° |
| 2026-05-08 02:40 | 56.90485 | 17.71850 | 39258 ft | 454 kts | 122° |
| 2026-05-08 02:41 | 56.87340 | 17.81834 | 38635 ft | 450 kts | 121° |
| 2026-05-08 02:41 | 56.85766 | 17.86815 | 37615 ft | 456 kts | 121° |
| 2026-05-08 02:41 | 56.84171 | 17.91850 | 36787 ft | 458 kts | 121° |
| 2026-05-08 02:42 | 56.82601 | 17.96797 | 36338 ft | 447 kts | 120° |
| 2026-05-08 02:42 | 56.81074 | 18.01600 | 35993 ft | 429 kts | 120° |
| 2026-05-08 02:42 | 56.79599 | 18.06224 | 35558 ft | 415 kts | 119° |
| 2026-05-08 02:42 | 56.78166 | 18.10712 | 35068 ft | 404 kts | 119° |
| 2026-05-08 02:43 | 56.76765 | 18.15092 | 34553 ft | 395 kts | 118° |
| 2026-05-08 02:43 | 56.75400 | 18.19352 | 34071 ft | 385 kts | 118° |
| 2026-05-08 02:43 | 56.74066 | 18.23504 | 33560 ft | 374 kts | 118° |
| 2026-05-08 02:43 | 56.72759 | 18.27565 | 33122 ft | 372 kts | 118° |
| 2026-05-08 02:44 | 56.71435 | 18.31677 | 32705 ft | 380 kts | 118° |
| 2026-05-08 02:44 | 56.70093 | 18.35833 | 32296 ft | 384 kts | 119° |
| 2026-05-08 02:44 | 56.68741 | 18.40016 | 31857 ft | 382 kts | 118° |
| 2026-05-08 02:44 | 56.67396 | 18.44168 | 31415 ft | 380 kts | 119° |
| 2026-05-08 02:45 | 56.66065 | 18.48271 | 31009 ft | 377 kts | 119° |
| 2026-05-08 02:45 | 56.64735 | 18.52365 | 30577 ft | 375 kts | 119° |
| 2026-05-08 02:45 | 56.63413 | 18.56427 | 30155 ft | 372 kts | 119° |
| 2026-05-08 02:45 | 56.62097 | 18.60466 | 29683 ft | 370 kts | 119° |
| 2026-05-08 02:46 | 56.60794 | 18.64460 | 29275 ft | 366 kts | 119° |
| 2026-05-08 02:46 | 56.59504 | 18.68409 | 28890 ft | 362 kts | 120° |
| 2026-05-08 02:46 | 56.58232 | 18.72296 | 28513 ft | 358 kts | 120° |
| 2026-05-08 02:46 | 56.56966 | 18.76158 | 28135 ft | 355 kts | 119° |
| 2026-05-08 02:47 | 56.55711 | 18.79977 | 27761 ft | 351 kts | 120° |
| 2026-05-08 02:47 | 56.54466 | 18.83765 | 27373 ft | 348 kts | 120° |
| 2026-05-08 02:47 | 56.53245 | 18.87539 | 26991 ft | 346 kts | 117° |
| 2026-05-08 02:47 | 56.52325 | 18.91564 | 26546 ft | 346 kts | 112° |
| 2026-05-08 02:48 | 56.51408 | 18.95566 | 26224 ft | 342 kts | 114° |
| 2026-05-08 02:48 | 56.50485 | 18.99497 | 25884 ft | 340 kts | 114° |
| 2026-05-08 02:48 | 56.49555 | 19.03412 | 25533 ft | 338 kts | 114° |
| 2026-05-08 02:48 | 56.48618 | 19.07325 | 25173 ft | 341 kts | 115° |
| 2026-05-08 02:49 | 56.47671 | 19.11257 | 24803 ft | 345 kts | 115° |
| 2026-05-08 02:49 | 56.46715 | 19.15217 | 24440 ft | 345 kts | 114° |
| 2026-05-08 02:49 | 56.45755 | 19.19187 | 24077 ft | 344 kts | 114° |
| 2026-05-08 02:49 | 56.44811 | 19.23086 | 23701 ft | 343 kts | 115° |
| 2026-05-08 02:50 | 56.43857 | 19.27016 | 23270 ft | 341 kts | 115° |
| 2026-05-08 02:50 | 56.42907 | 19.30925 | 22898 ft | 338 kts | 115° |
| 2026-05-08 02:50 | 56.41964 | 19.34795 | 22543 ft | 335 kts | 115° |
| 2026-05-08 02:50 | 56.41032 | 19.38616 | 22196 ft | 331 kts | 115° |
| 2026-05-08 02:51 | 56.40106 | 19.42407 | 21842 ft | 328 kts | 116° |
| 2026-05-08 02:51 | 56.39185 | 19.46166 | 21494 ft | 326 kts | 116° |
| 2026-05-08 02:51 | 56.38273 | 19.49880 | 21156 ft | 323 kts | 115° |
| 2026-05-08 02:51 | 56.37369 | 19.53559 | 20827 ft | 320 kts | 115° |
| 2026-05-08 02:52 | 56.36471 | 19.57211 | 20483 ft | 318 kts | 115° |
| 2026-05-08 02:52 | 56.35575 | 19.60843 | 20148 ft | 316 kts | 115° |
| 2026-05-08 02:52 | 56.34686 | 19.64443 | 19816 ft | 313 kts | 115° |
| 2026-05-08 02:52 | 56.33802 | 19.68021 | 19480 ft | 311 kts | 115° |
| 2026-05-08 02:53 | 56.32922 | 19.71572 | 19155 ft | 310 kts | 115° |
| 2026-05-08 02:53 | 56.32044 | 19.75108 | 18821 ft | 308 kts | 114° |
| 2026-05-08 02:53 | 56.31173 | 19.78617 | 18504 ft | 306 kts | 114° |
| 2026-05-08 02:53 | 56.30303 | 19.82109 | 18136 ft | 305 kts | 115° |
| 2026-05-08 02:54 | 56.29438 | 19.85580 | 17789 ft | 302 kts | 114° |
| 2026-05-08 02:54 | 56.28580 | 19.89017 | 17449 ft | 300 kts | 115° |
| 2026-05-08 02:54 | 56.27720 | 19.92455 | 17142 ft | 303 kts | 115° |
| 2026-05-08 02:54 | 56.26851 | 19.95926 | 16821 ft | 308 kts | 115° |
| 2026-05-08 02:55 | 56.25969 | 19.99441 | 16488 ft | 308 kts | 115° |
| 2026-05-08 02:55 | 56.24217 | 20.06403 | 15836 ft | 303 kts | 115° |
| 2026-05-08 02:55 | 56.23352 | 20.09838 | 15508 ft | 301 kts | 115° |
| 2026-05-08 02:56 | 56.22491 | 20.13248 | 15186 ft | 299 kts | 115° |
| 2026-05-08 02:56 | 56.21637 | 20.16625 | 14870 ft | 296 kts | 114° |
| 2026-05-08 02:56 | 56.20784 | 20.19994 | 14552 ft | 295 kts | 115° |
| 2026-05-08 02:56 | 56.19937 | 20.23332 | 14234 ft | 293 kts | 115° |
| 2026-05-08 02:57 | 56.19094 | 20.26651 | 13901 ft | 291 kts | 114° |
| 2026-05-08 02:57 | 56.18256 | 20.29947 | 13554 ft | 290 kts | 114° |
| 2026-05-08 02:57 | 56.17421 | 20.33225 | 13227 ft | 287 kts | 114° |
| 2026-05-08 02:57 | 56.16598 | 20.36452 | 12917 ft | 285 kts | 114° |
| 2026-05-08 02:58 | 56.15777 | 20.39667 | 12603 ft | 282 kts | 114° |
| 2026-05-08 02:58 | 56.14974 | 20.42804 | 12306 ft | 279 kts | 114° |
| 2026-05-08 02:58 | 56.14155 | 20.45998 | 12001 ft | 277 kts | 113° |
| 2026-05-08 02:58 | 56.13365 | 20.49080 | 11704 ft | 275 kts | 113° |
| 2026-05-08 02:59 | 56.12558 | 20.52218 | 11406 ft | 272 kts | 112° |
| 2026-05-08 02:59 | 56.11778 | 20.55249 | 11111 ft | 270 kts | 113° |
| 2026-05-08 02:59 | 56.10994 | 20.58297 | 10819 ft | 268 kts | 112° |
| 2026-05-08 02:59 | 56.10214 | 20.61321 | 10525 ft | 267 kts | 112° |
| 2026-05-08 03:00 | 56.09439 | 20.64326 | 10264 ft | 263 kts | 113° |
| 2026-05-08 03:00 | 56.08679 | 20.67265 | 10046 ft | 259 kts | 112° |
| 2026-05-08 03:00 | 56.07917 | 20.70212 | 9742 ft | 263 kts | 112° |
| 2026-05-08 03:00 | 56.07142 | 20.73207 | 9433 ft | 267 kts | 112° |
| 2026-05-08 03:01 | 56.06305 | 20.76182 | 9140 ft | 268 kts | 115° |
| 2026-05-08 03:01 | 56.05427 | 20.79111 | 8870 ft | 268 kts | 115° |
| 2026-05-08 03:01 | 56.04554 | 20.82042 | 8628 ft | 267 kts | 115° |
| 2026-05-08 03:01 | 56.03687 | 20.84962 | 8377 ft | 265 kts | 115° |
| 2026-05-08 03:02 | 56.02768 | 20.87815 | 8087 ft | 267 kts | 126° |
| 2026-05-08 03:02 | 56.01295 | 20.89870 | 7721 ft | 275 kts | 153° |
| 2026-05-08 03:02 | 55.99424 | 20.90492 | 7370 ft | 276 kts | 180° |
| 2026-05-08 03:02 | 55.97553 | 20.89970 | 7045 ft | 268 kts | 187° |
| 2026-05-08 03:03 | 55.95746 | 20.89413 | 6729 ft | 260 kts | 186° |
| 2026-05-08 03:03 | 55.93989 | 20.88877 | 6394 ft | 253 kts | 186° |
| 2026-05-08 03:03 | 55.92278 | 20.88353 | 6062 ft | 246 kts | 186° |
| 2026-05-08 03:03 | 55.90615 | 20.87842 | 5725 ft | 240 kts | 186° |
| 2026-05-08 03:04 | 55.88985 | 20.87342 | 5360 ft | 236 kts | 185° |
| 2026-05-08 03:04 | 55.87384 | 20.86850 | 5044 ft | 230 kts | 185° |
| 2026-05-08 03:04 | 55.85831 | 20.86431 | 4747 ft | 220 kts | 176° |
| 2026-05-08 03:04 | 55.84435 | 20.87082 | 4406 ft | 201 kts | 140° |
| 2026-05-08 03:05 | 55.83545 | 20.88810 | 4132 ft | 183 kts | 111° |
| 2026-05-08 03:05 | 55.83136 | 20.90869 | 3940 ft | 175 kts | 101° |
| 2026-05-08 03:05 | 55.82821 | 20.92912 | 3780 ft | 176 kts | 100° |
| 2026-05-08 03:05 | 55.82521 | 20.95029 | 3611 ft | 177 kts | 99° |
| 2026-05-08 03:06 | 55.82238 | 20.97158 | 3411 ft | 177 kts | 98° |
| 2026-05-08 03:06 | 55.81969 | 20.99293 | 3183 ft | 177 kts | 97° |
| 2026-05-08 03:06 | 55.82019 | 21.01404 | 2897 ft | 171 kts | 65° |
| 2026-05-08 03:06 | 55.82780 | 21.02925 | 2751 ft | 168 kts | 30° |
| 2026-05-08 03:07 | 55.83907 | 21.03584 | 2570 ft | 172 kts | 20° |
| 2026-05-08 03:07 | 55.85032 | 21.04161 | 2364 ft | 166 kts | 20° |
| 2026-05-08 03:07 | 55.86111 | 21.04678 | 2091 ft | 155 kts | 19° |
| 2026-05-08 03:07 | 55.87143 | 21.05149 | 1855 ft | 152 kts | 19° |
| 2026-05-08 03:08 | 55.88155 | 21.05596 | 1786 ft | 147 kts | 18° |
| 2026-05-08 03:08 | 55.89128 | 21.06014 | 1718 ft | 142 kts | 18° |
| 2026-05-08 03:08 | 55.90090 | 21.06409 | 1572 ft | 142 kts | 17° |
| 2026-05-08 03:08 | 55.91044 | 21.06748 | 1291 ft | 137 kts | 15° |
| 2026-05-08 03:09 | 55.91947 | 21.07116 | 1057 ft | 131 kts | 20° |
| 2026-05-08 03:09 | 55.92828 | 21.07549 | 800 ft | 132 kts | 17° |
| 2026-05-08 03:09 | 55.93726 | 21.07932 | 576 ft | 133 kts | 15° |
| 2026-05-08 03:09 | 55.94641 | 21.08299 | 388 ft | 135 kts | 15° |
| 2026-05-08 03:10 | 55.95555 | 21.08664 | 211 ft | 135 kts | 15° |
| 2026-05-08 03:10 | 55.96458 | 21.09033 | 90 ft | 134 kts | 15° |
| 2026-05-08 03:10 | 55.97267 | 21.09366 | 41 ft | 95 kts | 12° |
| 2026-05-08 03:10 | 55.97673 | 21.09528 | 41 ft | 27 kts | 12° |
| 2026-05-08 03:11 | 55.97821 | 21.09586 | 41 ft | 17 kts | 12° |
| 2026-05-08 03:11 | 55.97948 | 21.09637 | 41 ft | 20 kts | 13° |
| 2026-05-08 03:11 | 55.98093 | 21.09696 | 41 ft | 22 kts | 12° |
| 2026-05-08 03:11 | 55.98206 | 21.09726 | 39 ft | 16 kts | 349° |
| 2026-05-08 03:12 | 55.98298 | 21.09725 | 41 ft | 9 kts | 49° |
| 2026-05-08 03:12 | 55.98281 | 21.09795 | 40 ft | 4 kts | 163° |
| 2026-05-08 03:12 | 55.98221 | 21.09772 | 41 ft | 21 kts | 194° |
| 2026-05-08 03:12 | 55.98049 | 21.09684 | 41 ft | 25 kts | 195° |
| 2026-05-08 03:13 | 55.97873 | 21.09609 | 41 ft | 27 kts | 193° |
| 2026-05-08 03:13 | 55.97707 | 21.09541 | 41 ft | 26 kts | 193° |
| 2026-05-08 03:13 | 55.97529 | 21.09470 | 41 ft | 25 kts | 192° |
| 2026-05-08 03:13 | 55.97370 | 21.09405 | 41 ft | 23 kts | 192° |
| 2026-05-08 03:14 | 55.97221 | 21.09350 | 41 ft | 21 kts | 194° |
| 2026-05-08 03:14 | 55.97117 | 21.09347 | 41 ft | 14 kts | 136° |
| 2026-05-08 03:14 | 55.97093 | 21.09478 | 41 ft | 9 kts | 102° |
| 2026-05-08 03:14 | 55.97060 | 21.09542 | 41 ft | 6 kts | 167° |
| 2026-05-08 03:15 | 55.97028 | 21.09541 | 41 ft | 2 kts | 190° |
| 2026-05-08 03:15 | 55.97005 | 21.09534 | 41 ft | 5 kts | 186° |
| 2026-05-08 03:15 | 55.96983 | 21.09558 | 41 ft | 3 kts | 118° |
| 2026-05-08 03:15 | 55.96981 | 21.09564 | 41 ft | 0 kts | 124° |
| 2026-05-08 03:16 | 55.96979 | 21.09574 | 41 ft | 0 kts | 112° |